Aviation Digital Data Service (ADDS)

Output produced by TAFs form (1739 UTC 21 April 2018)
found at http://aviationweather.gov/adds/tafs/
 
RJOT 211200Z 14008KT CAVOK 18/09 Q1021
TAF RJOT 211714Z 2118/2300 15010KT CAVOK 
     BECMG 2122/2200 06005KT